Time;durP1;ratioP1;P1;durP2;ratioP2;P2;SDS_P1;SDS_P2;PMS_P1;PMS_P2;Temp;Humidity;BMP_temperature;BMP_pressure;BME280_temperature;BME280_humidity;BME280_pressure;Samples;Min_cycle;Max_cycle;Signal;HPM_P1;HPM_P2
2023/12/18 00:02:19;;;;;;;1.60;1.50;;;;;;;;;;4913092;29;20042;-76
2023/12/18 00:04:45;;;;;;;3.67;1.50;;;;;;;;;;4878972;29;20088;-76
2023/12/18 00:07:12;;;;;;;2.15;1.95;;;;;;;;;;4881783;29;20502;-77
2023/12/18 00:09:39;;;;;;;1.70;1.58;;;;;;;;;;4916241;29;20028;-76
2023/12/18 00:12:05;;;;;;;1.63;1.52;;;;;;;;;;4886616;29;20048;-77
2023/12/18 00:14:31;;;;;;;1.95;1.55;;;;;;;;;;4914258;29;20032;-75
2023/12/18 00:16:57;;;;;;;3.75;1.95;;;;;;;;;;4897403;29;20044;-76
2023/12/18 00:19:23;;;;;;;1.40;1.30;;;;;;;;;;4913386;29;20410;-75
2023/12/18 00:21:49;;;;;;;1.95;1.73;;;;;;;;;;4894770;29;20123;-76
2023/12/18 00:24:15;;;;;;;3.08;1.48;;;;;;;;;;4888230;29;20119;-76
2023/12/18 00:26:41;;;;;;;2.30;1.42;;;;;;;;;;4909474;29;20503;-75
2023/12/18 00:29:07;;;;;;;3.67;1.08;;;;;;;;;;4888047;29;20032;-76
2023/12/18 00:31:33;;;;;;;1.63;1.52;;;;;;;;;;4893934;29;20044;-76
2023/12/18 00:33:59;;;;;;;1.52;1.42;;;;;;;;;;4879248;29;20036;-76
2023/12/18 00:36:25;;;;;;;5.38;2.20;;;;;;;;;;4913728;29;20589;-75
2023/12/18 00:38:51;;;;;;;4.53;1.75;;;;;;;;;;4911335;29;20048;-75
2023/12/18 00:41:18;;;;;;;2.42;1.27;;;;;;;;;;4894590;29;20514;-75
2023/12/18 00:43:44;;;;;;;1.88;1.27;;;;;;;;;;4894687;29;20040;-75
2023/12/18 00:46:10;;;;;;;2.60;1.70;;;;;;;;;;4911919;29;20040;-75
2023/12/18 00:48:35;;;;;;;5.85;2.28;;;;;;;;;;4912969;29;20419;-76
2023/12/18 00:51:01;;;;;;;2.78;1.65;;;;;;;;;;4864407;29;20067;-75
2023/12/18 00:53:27;;;;;;;2.10;1.60;;;;;;;;;;4911328;29;20065;-75
2023/12/18 00:55:53;;;;;;;3.35;1.52;;;;;;;;;;4910915;29;20047;-75
2023/12/18 00:58:19;;;;;;;6.22;2.03;;;;;;;;;;4910992;29;20040;-76
2023/12/18 01:00:45;;;;;;;2.30;1.83;;;;;;;;;;4895713;29;20135;-75
2023/12/18 01:03:11;;;;;;;2.22;1.38;;;;;;;;;;4888302;29;20041;-75
2023/12/18 01:05:37;;;;;;;1.65;1.55;;;;;;;;;;4883528;29;20041;-75
2023/12/18 01:08:03;;;;;;;2.33;1.80;;;;;;;;;;4893569;29;20032;-76
2023/12/18 01:10:29;;;;;;;6.60;2.25;;;;;;;;;;4895158;29;20035;-76
2023/12/18 01:12:55;;;;;;;3.35;1.50;;;;;;;;;;4910381;29;20043;-76
2023/12/18 01:15:21;;;;;;;5.00;2.38;;;;;;;;;;4912567;29;20039;-76
2023/12/18 01:17:46;;;;;;;1.92;1.75;;;;;;;;;;4912104;29;20036;-76
2023/12/18 01:20:12;;;;;;;1.30;1.20;;;;;;;;;;4911034;29;20578;-75
2023/12/18 01:22:38;;;;;;;3.67;1.88;;;;;;;;;;4910632;29;20036;-76
2023/12/18 01:25:04;;;;;;;5.07;1.83;;;;;;;;;;4911123;29;20042;-76
2023/12/18 01:27:30;;;;;;;3.90;1.65;;;;;;;;;;4912546;29;20065;-75
2023/12/18 01:29:56;;;;;;;3.00;1.50;;;;;;;;;;4893728;29;20032;-75
2023/12/18 01:32:22;;;;;;;1.63;1.40;;;;;;;;;;4894839;29;20181;-75
2023/12/18 01:34:48;;;;;;;4.20;1.80;;;;;;;;;;4914349;29;20039;-76
2023/12/18 01:37:14;;;;;;;1.58;1.10;;;;;;;;;;4926058;29;20036;-75
2023/12/18 01:39:40;;;;;;;1.75;1.58;;;;;;;;;;4924113;29;20040;-75
2023/12/18 01:42:06;;;;;;;3.17;2.03;;;;;;;;;;4912868;29;20042;-76
2023/12/18 01:44:32;;;;;;;4.00;2.08;;;;;;;;;;4847566;29;20036;-75
2023/12/18 01:46:57;;;;;;;1.60;1.40;;;;;;;;;;4878249;29;20513;-76
2023/12/18 01:49:23;;;;;;;3.50;2.60;;;;;;;;;;4910209;29;20056;-77
2023/12/18 01:51:49;;;;;;;4.20;1.65;;;;;;;;;;4911385;29;20071;-75
2023/12/18 01:54:15;;;;;;;3.45;2.10;;;;;;;;;;4886839;29;20354;-75
2023/12/18 01:56:41;;;;;;;2.53;2.10;;;;;;;;;;4907858;29;20075;-75
2023/12/18 01:59:07;;;;;;;2.25;1.42;;;;;;;;;;4909298;29;20130;-76
2023/12/18 02:01:33;;;;;;;1.30;1.20;;;;;;;;;;4894608;29;20044;-75
2023/12/18 02:03:58;;;;;;;4.18;1.60;;;;;;;;;;4914726;29;21317;-76
2023/12/18 02:06:25;;;;;;;6.75;1.77;;;;;;;;;;4918524;29;20466;-76
2023/12/18 02:08:51;;;;;;;3.28;1.63;;;;;;;;;;4892593;29;20036;-76
2023/12/18 02:11:16;;;;;;;1.00;1.00;;;;;;;;;;4913058;29;20047;-75
2023/12/18 02:13:42;;;;;;;2.25;1.60;;;;;;;;;;4913270;29;20037;-75
2023/12/18 02:16:09;;;;;;;1.67;1.50;;;;;;;;;;4910476;29;20040;-76
2023/12/18 02:18:41;;;;;;;12.43;2.20;;;;;;;;;;4895111;29;20092;-75
2023/12/18 02:21:07;;;;;;;3.30;2.03;;;;;;;;;;4882808;29;20054;-76
2023/12/18 02:23:32;;;;;;;7.78;1.80;;;;;;;;;;4913596;29;20036;-75
2023/12/18 02:25:58;;;;;;;1.23;1.13;;;;;;;;;;4913366;29;20499;-75
2023/12/18 02:28:24;;;;;;;2.20;1.60;;;;;;;;;;4913942;29;20038;-77
2023/12/18 02:30:50;;;;;;;2.85;1.65;;;;;;;;;;4916926;29;20047;-76
2023/12/18 02:33:16;;;;;;;1.50;1.40;;;;;;;;;;4930617;29;20527;-76
2023/12/18 02:35:42;;;;;;;2.97;1.90;;;;;;;;;;4924624;29;20047;-77
2023/12/18 02:38:08;;;;;;;2.60;1.70;;;;;;;;;;4919382;29;20028;-75
2023/12/18 02:40:35;;;;;;;1.33;1.23;;;;;;;;;;4899730;29;20036;-77
2023/12/18 02:43:01;;;;;;;2.42;1.52;;;;;;;;;;4901157;29;20039;-77
2023/12/18 02:45:27;;;;;;;4.43;1.60;;;;;;;;;;4894407;29;20724;-76
2023/12/18 02:47:53;;;;;;;2.67;2.03;;;;;;;;;;4914542;29;20074;-76
2023/12/18 02:50:19;;;;;;;2.13;1.60;;;;;;;;;;4897159;29;20103;-76
2023/12/18 02:52:45;;;;;;;7.32;1.67;;;;;;;;;;4913863;29;20055;-76
2023/12/18 02:55:12;;;;;;;4.85;1.70;;;;;;;;;;4883085;29;20095;-76
2023/12/18 02:57:38;;;;;;;0.70;0.70;;;;;;;;;;4899803;29;20418;-77
2023/12/18 03:00:04;;;;;;;4.57;2.10;;;;;;;;;;4916691;29;20171;-77
2023/12/18 03:02:31;;;;;;;5.32;2.08;;;;;;;;;;4913074;29;20067;-77
2023/12/18 03:04:57;;;;;;;5.93;2.13;;;;;;;;;;4897840;29;20126;-76
2023/12/18 03:07:23;;;;;;;7.47;1.98;;;;;;;;;;4897455;29;20039;-76
2023/12/18 03:09:48;;;;;;;6.32;1.92;;;;;;;;;;4913135;29;20206;-76
2023/12/18 03:12:14;;;;;;;3.90;1.77;;;;;;;;;;4913486;29;20538;-76
2023/12/18 03:14:40;;;;;;;4.85;2.00;;;;;;;;;;4896923;29;20072;-76
2023/12/18 03:17:07;;;;;;;3.40;2.25;;;;;;;;;;4897956;29;20044;-75
2023/12/18 03:19:32;;;;;;;7.78;3.28;;;;;;;;;;4897029;29;20144;-75
2023/12/18 03:21:58;;;;;;;6.93;2.38;;;;;;;;;;4895690;29;20047;-75
2023/12/18 03:24:24;;;;;;;2.00;1.90;;;;;;;;;;4912889;29;20554;-75
2023/12/18 03:26:50;;;;;;;5.75;2.22;;;;;;;;;;4912827;29;20036;-75
2023/12/18 03:29:16;;;;;;;8.05;2.42;;;;;;;;;;4887380;29;20192;-76
2023/12/18 03:31:42;;;;;;;11.02;1.77;;;;;;;;;;4912335;29;20052;-76
2023/12/18 03:34:08;;;;;;;2.25;2.15;;;;;;;;;;4888957;29;20510;-76
2023/12/18 03:36:34;;;;;;;6.22;2.40;;;;;;;;;;4879241;29;20051;-76
2023/12/18 03:38:59;;;;;;;5.90;2.75;;;;;;;;;;4905751;29;20518;-75
2023/12/18 03:41:25;;;;;;;5.55;2.17;;;;;;;;;;4912513;29;20032;-75
2023/12/18 03:43:51;;;;;;;4.75;2.30;;;;;;;;;;4896160;29;20072;-77
2023/12/18 03:46:17;;;;;;;5.85;2.67;;;;;;;;;;4909032;29;20040;-76
2023/12/18 03:48:43;;;;;;;6.82;2.83;;;;;;;;;;4912397;29;20035;-76
2023/12/18 03:51:10;;;;;;;5.43;3.92;;;;;;;;;;4913537;29;20059;-76
2023/12/18 03:53:35;;;;;;;4.53;3.05;;;;;;;;;;4898940;29;20040;-76
2023/12/18 03:56:01;;;;;;;5.95;3.25;;;;;;;;;;4913342;29;20039;-77
2023/12/18 03:58:27;;;;;;;4.30;2.83;;;;;;;;;;4891894;29;20026;-77
2023/12/18 04:00:53;;;;;;;4.55;3.30;;;;;;;;;;4897848;29;20654;-77
2023/12/18 04:03:19;;;;;;;8.40;4.65;;;;;;;;;;4898743;29;20111;-77
2023/12/18 04:05:45;;;;;;;8.27;3.35;;;;;;;;;;4896216;29;20046;-76
2023/12/18 04:08:11;;;;;;;4.85;3.13;;;;;;;;;;4913346;29;20088;-76
2023/12/18 04:10:37;;;;;;;3.72;3.08;;;;;;;;;;4892723;29;20048;-76
2023/12/18 04:13:04;;;;;;;3.05;2.60;;;;;;;;;;4897763;29;20043;-77
2023/12/18 04:15:30;;;;;;;8.60;2.60;;;;;;;;;;4913909;29;20048;-77
2023/12/18 04:17:56;;;;;;;3.63;2.55;;;;;;;;;;4913546;29;20118;-77
2023/12/18 04:20:22;;;;;;;3.40;2.72;;;;;;;;;;4887374;29;20100;-76
2023/12/18 04:22:47;;;;;;;10.38;4.13;;;;;;;;;;4893657;29;20082;-75
2023/12/18 04:25:13;;;;;;;10.57;2.63;;;;;;;;;;4912970;29;20103;-75
2023/12/18 04:27:39;;;;;;;4.82;3.28;;;;;;;;;;4920356;29;20071;-75
2023/12/18 04:30:05;;;;;;;3.50;2.45;;;;;;;;;;4925943;29;20036;-76
2023/12/18 04:32:31;;;;;;;6.00;2.92;;;;;;;;;;4878174;29;20057;-75
2023/12/18 04:34:57;;;;;;;6.15;3.17;;;;;;;;;;4894797;29;20079;-75
2023/12/18 04:37:23;;;;;;;3.30;2.67;;;;;;;;;;4911642;29;20689;-76
2023/12/18 04:39:49;;;;;;;4.90;1.65;;;;;;;;;;4894409;29;20040;-75
2023/12/18 04:42:15;;;;;;;2.22;1.90;;;;;;;;;;4913914;29;20051;-75
2023/12/18 04:44:41;;;;;;;3.63;2.90;;;;;;;;;;4870929;29;20048;-76
2023/12/18 04:47:07;;;;;;;2.92;2.40;;;;;;;;;;4911007;29;20419;-76
2023/12/18 04:49:33;;;;;;;3.58;2.42;;;;;;;;;;4911286;29;20060;-75
2023/12/18 04:51:59;;;;;;;4.38;2.65;;;;;;;;;;4913040;29;20045;-75
2023/12/18 04:54:24;;;;;;;5.82;2.78;;;;;;;;;;4896289;29;20043;-75
2023/12/18 04:56:50;;;;;;;11.90;4.28;;;;;;;;;;4911016;29;20043;-75
2023/12/18 04:59:16;;;;;;;6.45;3.33;;;;;;;;;;4911246;29;20065;-75
2023/12/18 05:01:42;;;;;;;6.93;2.67;;;;;;;;;;4911317;29;20040;-75
2023/12/18 05:04:08;;;;;;;1.88;1.77;;;;;;;;;;4895020;29;20466;-76
2023/12/18 05:06:34;;;;;;;5.07;3.13;;;;;;;;;;4889298;29;20048;-77
2023/12/18 05:08:59;;;;;;;6.18;2.65;;;;;;;;;;4879401;29;20087;-75
2023/12/18 05:11:25;;;;;;;2.67;2.10;;;;;;;;;;4910616;29;20130;-75
2023/12/18 05:13:51;;;;;;;2.95;2.53;;;;;;;;;;4910759;29;20350;-75
2023/12/18 05:16:18;;;;;;;2.50;2.30;;;;;;;;;;4894084;29;20126;-75
2023/12/18 05:18:44;;;;;;;8.55;2.72;;;;;;;;;;4895302;29;20151;-75
2023/12/18 05:21:11;;;;;;;10.75;3.60;;;;;;;;;;4912767;29;20139;-75
2023/12/18 05:23:37;;;;;;;3.97;3.05;;;;;;;;;;4910670;29;20039;-75
2023/12/18 05:26:03;;;;;;;4.25;3.22;;;;;;;;;;4894077;29;20035;-74
2023/12/18 05:28:29;;;;;;;7.72;3.60;;;;;;;;;;4893699;29;20502;-75
2023/12/18 05:30:54;;;;;;;3.83;3.00;;;;;;;;;;4893692;29;20052;-75
2023/12/18 05:33:20;;;;;;;5.00;2.17;;;;;;;;;;4887691;29;20036;-75
2023/12/18 05:35:46;;;;;;;2.97;2.70;;;;;;;;;;4910663;29;20044;-75
2023/12/18 05:38:12;;;;;;;5.57;3.17;;;;;;;;;;4910690;29;20028;-75
2023/12/18 05:40:38;;;;;;;10.60;3.90;;;;;;;;;;4910591;29;20447;-75
2023/12/18 05:43:07;;;;;;;6.07;3.40;;;;;;;;;;4863902;29;20066;-76
2023/12/18 05:45:32;;;;;;;2.33;2.00;;;;;;;;;;4908478;29;20044;-75
2023/12/18 05:47:59;;;;;;;3.40;3.10;;;;;;;;;;4910314;29;20430;-75
2023/12/18 05:50:24;;;;;;;6.72;2.35;;;;;;;;;;4910312;29;20052;-75
2023/12/18 05:52:50;;;;;;;4.53;3.42;;;;;;;;;;4894445;29;20127;-75
2023/12/18 05:55:16;;;;;;;3.45;3.15;;;;;;;;;;4894153;29;20032;-76
2023/12/18 05:57:44;;;;;;;9.07;3.45;;;;;;;;;;4910942;29;20036;-76
2023/12/18 06:00:10;;;;;;;7.25;3.70;;;;;;;;;;4893775;29;20040;-75
2023/12/18 06:02:36;;;;;;;6.20;3.17;;;;;;;;;;4910288;29;20410;-75
2023/12/18 06:05:02;;;;;;;3.53;3.03;;;;;;;;;;4897093;29;20036;-76
2023/12/18 06:07:31;;;;;;;10.38;3.42;;;;;;;;;;4918667;29;20047;-76
2023/12/18 06:09:56;;;;;;;4.93;3.45;;;;;;;;;;4901533;29;20036;-76
2023/12/18 06:12:22;;;;;;;10.05;4.82;;;;;;;;;;4917845;29;20118;-75
2023/12/18 06:14:48;;;;;;;3.63;3.03;;;;;;;;;;4910237;29;20503;-75
2023/12/18 06:17:14;;;;;;;4.93;2.78;;;;;;;;;;4910134;29;20133;-75
2023/12/18 06:19:40;;;;;;;5.70;4.22;;;;;;;;;;4910379;29;20032;-75
2023/12/18 06:22:06;;;;;;;5.43;3.97;;;;;;;;;;4893837;29;20080;-76
2023/12/18 06:24:32;;;;;;;4.20;3.05;;;;;;;;;;4879494;29;20037;-75
2023/12/18 06:26:58;;;;;;;4.97;3.60;;;;;;;;;;4894115;29;20043;-75
2023/12/18 06:29:27;;;;;;;6.97;3.47;;;;;;;;;;4910107;29;20036;-75
2023/12/18 06:31:55;;;;;;;5.53;3.75;;;;;;;;;;4892898;29;20071;-76
2023/12/18 06:34:21;;;;;;;10.02;3.08;;;;;;;;;;4894634;29;20067;-75
2023/12/18 06:36:47;;;;;;;6.72;3.20;;;;;;;;;;4893733;29;20713;-76
2023/12/18 06:39:13;;;;;;;4.43;3.15;;;;;;;;;;4871325;29;20028;-76
2023/12/18 06:41:39;;;;;;;6.68;3.67;;;;;;;;;;4891756;29;20062;-72
2023/12/18 06:44:05;;;;;;;2.80;2.60;;;;;;;;;;4910243;29;20435;-72
2023/12/18 06:46:31;;;;;;;3.22;2.33;;;;;;;;;;4909331;29;20040;-72
2023/12/18 06:48:57;;;;;;;7.38;4.05;;;;;;;;;;4908975;29;20036;-71
2023/12/18 06:51:23;;;;;;;8.55;4.55;;;;;;;;;;4911571;29;20044;-72
2023/12/18 06:53:50;;;;;;;5.50;3.60;;;;;;;;;;4909985;29;20040;-72
2023/12/18 06:56:16;;;;;;;12.18;4.00;;;;;;;;;;4909395;29;20036;-72
2023/12/18 06:58:42;;;;;;;3.58;3.00;;;;;;;;;;4909458;29;20036;-72
2023/12/18 07:01:08;;;;;;;4.20;3.75;;;;;;;;;;4907108;29;20131;-70
2023/12/18 07:03:34;;;;;;;4.60;2.13;;;;;;;;;;4895033;29;20047;-72
2023/12/18 07:06:00;;;;;;;7.60;3.20;;;;;;;;;;4911039;29;20044;-71
2023/12/18 07:08:28;;;;;;;5.75;3.90;;;;;;;;;;4895675;29;20414;-72
2023/12/18 07:10:57;;;;;;;3.75;3.10;;;;;;;;;;4888676;29;20048;-71
2023/12/18 07:13:23;;;;;;;4.40;3.28;;;;;;;;;;4897874;29;20044;-72
2023/12/18 07:15:49;;;;;;;9.52;3.35;;;;;;;;;;4916371;29;20028;-71
2023/12/18 07:18:15;;;;;;;2.65;2.35;;;;;;;;;;4925031;29;20042;-71
2023/12/18 07:20:41;;;;;;;2.70;2.35;;;;;;;;;;4919533;29;20032;-71
2023/12/18 07:23:08;;;;;;;12.82;3.28;;;;;;;;;;4897361;29;20120;-71
2023/12/18 07:25:34;;;;;;;3.42;3.13;;;;;;;;;;4896899;29;20032;-71
2023/12/18 07:27:59;;;;;;;3.15;2.45;;;;;;;;;;4895806;29;20091;-71
2023/12/18 07:30:25;;;;;;;15.40;3.95;;;;;;;;;;4863164;29;20068;-71
2023/12/18 07:32:51;;;;;;;6.20;3.65;;;;;;;;;;4884198;29;20065;-71
2023/12/18 07:35:17;;;;;;;3.78;3.15;;;;;;;;;;4916411;29;20047;-72
2023/12/18 07:37:43;;;;;;;8.43;3.50;;;;;;;;;;4894339;29;20467;-71
2023/12/18 07:40:09;;;;;;;4.55;3.88;;;;;;;;;;4913933;29;20028;-72
2023/12/18 07:42:35;;;;;;;5.30;3.45;;;;;;;;;;4913746;29;20051;-72
2023/12/18 07:45:01;;;;;;;5.03;3.53;;;;;;;;;;4897059;29;20123;-71
2023/12/18 07:47:26;;;;;;;3.30;2.70;;;;;;;;;;4896836;29;20055;-71
2023/12/18 07:49:52;;;;;;;3.05;2.85;;;;;;;;;;4913779;29;20055;-69
2023/12/18 07:52:18;;;;;;;7.63;3.78;;;;;;;;;;4896540;29;20044;-69
2023/12/18 07:54:44;;;;;;;2.72;2.63;;;;;;;;;;4914654;29;20117;-70
2023/12/18 07:57:09;;;;;;;4.38;3.78;;;;;;;;;;4913272;29;20028;-70
2023/12/18 07:59:39;;;;;;;9.05;3.58;;;;;;;;;;4901481;29;20032;-70
2023/12/18 08:02:08;;;;;;;5.53;3.63;;;;;;;;;;4912856;29;20036;-70
2023/12/18 08:04:35;;;;;;;3.72;3.42;;;;;;;;;;4912551;29;20036;-70
2023/12/18 08:07:01;;;;;;;2.60;2.40;;;;;;;;;;4913253;29;20040;-70
2023/12/18 08:09:27;;;;;;;9.15;3.55;;;;;;;;;;4878997;29;20043;-71
2023/12/18 08:11:55;;;;;;;4.40;2.53;;;;;;;;;;4911766;29;20043;-70
2023/12/18 08:14:21;;;;;;;5.97;2.88;;;;;;;;;;4894741;29;20473;-72
2023/12/18 08:16:47;;;;;;;4.22;3.88;;;;;;;;;;4879011;29;20131;-70
2023/12/18 08:19:13;;;;;;;4.80;3.38;;;;;;;;;;4911428;29;20507;-71
2023/12/18 08:21:39;;;;;;;3.03;2.83;;;;;;;;;;4911254;29;20060;-72
2023/12/18 08:24:04;;;;;;;2.85;2.45;;;;;;;;;;4911634;29;20032;-71
2023/12/18 08:26:30;;;;;;;2.05;1.95;;;;;;;;;;4896195;29;20039;-71
2023/12/18 08:28:57;;;;;;;3.47;2.28;;;;;;;;;;4913566;29;20411;-71
2023/12/18 08:31:23;;;;;;;3.78;2.78;;;;;;;;;;4912915;29;20054;-71
2023/12/18 08:33:49;;;;;;;3.25;3.05;;;;;;;;;;4913405;29;20063;-71
2023/12/18 08:36:17;;;;;;;2.78;2.58;;;;;;;;;;4885584;29;20586;-71
2023/12/18 08:38:43;;;;;;;5.90;3.92;;;;;;;;;;4894287;29;20100;-71
2023/12/18 08:41:09;;;;;;;5.57;5.00;;;;;;;;;;4894213;29;20438;-71
2023/12/18 08:43:35;;;;;;;4.20;3.80;;;;;;;;;;4861746;29;20809;-71
2023/12/18 08:46:01;;;;;;;4.60;3.38;;;;;;;;;;4894080;29;20044;-71
2023/12/18 08:48:27;;;;;;;7.55;3.53;;;;;;;;;;4894245;29;20146;-71
2023/12/18 08:50:53;;;;;;;8.85;3.30;;;;;;;;;;4877054;29;20064;-71
2023/12/18 08:53:19;;;;;;;5.13;3.47;;;;;;;;;;4895837;29;20036;-72
2023/12/18 08:55:44;;;;;;;3.03;2.85;;;;;;;;;;4913216;29;20040;-70
2023/12/18 08:58:10;;;;;;;4.68;4.00;;;;;;;;;;4879422;29;20035;-71
2023/12/18 09:00:36;;;;;;;3.58;3.28;;;;;;;;;;4846306;29;20052;-72
2023/12/18 09:03:03;;;;;;;3.97;3.10;;;;;;;;;;4886306;29;20048;-71
2023/12/18 09:05:29;;;;;;;4.07;3.78;;;;;;;;;;4912600;29;20553;-70
2023/12/18 09:07:55;;;;;;;4.38;3.83;;;;;;;;;;4898983;29;20800;-70
2023/12/18 09:10:22;;;;;;;6.80;3.83;;;;;;;;;;4861273;29;20036;-71
2023/12/18 09:12:48;;;;;;;3.10;2.83;;;;;;;;;;4893978;29;20127;-70
2023/12/18 09:15:14;;;;;;;4.57;4.18;;;;;;;;;;4895505;29;20063;-71
2023/12/18 09:17:42;;;;;;;10.27;4.20;;;;;;;;;;4905128;29;20059;-71
2023/12/18 09:20:08;;;;;;;6.28;3.92;;;;;;;;;;4895640;29;20447;-71
2023/12/18 09:22:35;;;;;;;7.60;3.78;;;;;;;;;;4895288;29;20040;-71
2023/12/18 09:25:00;;;;;;;3.33;3.13;;;;;;;;;;4911909;29;20130;-71
2023/12/18 09:27:26;;;;;;;5.25;3.63;;;;;;;;;;4912484;29;20118;-72
2023/12/18 09:29:52;;;;;;;3.15;2.92;;;;;;;;;;4897833;29;20149;-70
2023/12/18 09:32:18;;;;;;;3.42;3.13;;;;;;;;;;4897705;29;20511;-71
2023/12/18 09:34:44;;;;;;;6.72;3.78;;;;;;;;;;4914164;29;20050;-71
2023/12/18 09:37:09;;;;;;;4.00;3.55;;;;;;;;;;4897076;29;20251;-71
2023/12/18 09:39:35;;;;;;;6.28;4.60;;;;;;;;;;4913020;29;20495;-71
2023/12/18 09:42:05;;;;;;;7.28;3.95;;;;;;;;;;4912075;29;20024;-72
2023/12/18 09:44:31;;;;;;;4.05;3.75;;;;;;;;;;4912171;29;20040;-71
2023/12/18 09:47:00;;;;;;;5.93;5.07;;;;;;;;;;4895164;29;20111;-71
2023/12/18 09:49:26;;;;;;;3.42;3.13;;;;;;;;;;4895343;29;20056;-71
2023/12/18 09:52:02;;;;;;;3.10;2.78;;;;;;;;;;4911948;29;20054;-71
2023/12/18 09:54:27;;;;;;;7.45;3.88;;;;;;;;;;4879605;29;20127;-70
2023/12/18 09:56:53;;;;;;;2.60;2.42;;;;;;;;;;4912259;29;20119;-70
2023/12/18 09:59:19;;;;;;;3.25;2.95;;;;;;;;;;4912157;29;20458;-72
2023/12/18 10:01:45;;;;;;;5.00;3.55;;;;;;;;;;4895011;29;20047;-70
2023/12/18 10:04:11;;;;;;;3.42;3.13;;;;;;;;;;4894998;29;20036;-70
2023/12/18 10:06:37;;;;;;;5.57;4.15;;;;;;;;;;4911878;29;20073;-70
2023/12/18 10:09:03;;;;;;;3.88;3.15;;;;;;;;;;4897578;29;20685;-71
2023/12/18 10:11:29;;;;;;;2.10;2.00;;;;;;;;;;4870230;29;20080;-71
2023/12/18 10:13:55;;;;;;;4.97;4.57;;;;;;;;;;4894911;29;20063;-70
2023/12/18 10:16:21;;;;;;;3.92;2.92;;;;;;;;;;4876545;29;20036;-73
2023/12/18 10:18:47;;;;;;;4.07;3.67;;;;;;;;;;4876532;29;20563;-71
2023/12/18 10:21:13;;;;;;;5.05;4.57;;;;;;;;;;4876215;29;20123;-71
2023/12/18 10:23:39;;;;;;;5.05;4.55;;;;;;;;;;4876126;29;20043;-72
2023/12/18 10:26:05;;;;;;;3.55;3.25;;;;;;;;;;4892693;29;20119;-70
2023/12/18 10:28:31;;;;;;;4.53;4.13;;;;;;;;;;4845384;29;20493;-71
2023/12/18 10:30:57;;;;;;;3.92;3.58;;;;;;;;;;4875920;29;20052;-71
2023/12/18 10:33:25;;;;;;;5.65;5.13;;;;;;;;;;4860310;29;20400;-71
2023/12/18 10:35:52;;;;;;;4.18;3.78;;;;;;;;;;4892764;29;20037;-71
2023/12/18 10:38:20;;;;;;;5.00;4.50;;;;;;;;;;4892693;29;20116;-71
2023/12/18 10:40:46;;;;;;;7.65;5.93;;;;;;;;;;4875957;29;20434;-72
2023/12/18 10:43:15;;;;;;;9.70;5.47;;;;;;;;;;4875796;29;20073;-71
2023/12/18 10:45:41;;;;;;;4.20;3.80;;;;;;;;;;4876509;29;20499;-71
2023/12/18 10:48:07;;;;;;;5.55;4.65;;;;;;;;;;4896292;29;20092;-71
2023/12/18 10:50:33;;;;;;;7.63;5.40;;;;;;;;;;4867855;29;20060;-71
2023/12/18 10:53:00;;;;;;;7.60;6.30;;;;;;;;;;4882737;29;20126;-70
2023/12/18 10:55:26;;;;;;;9.60;5.03;;;;;;;;;;4912587;29;20036;-72
2023/12/18 10:57:51;;;;;;;4.63;4.07;;;;;;;;;;4896665;29;20043;-70
2023/12/18 11:00:17;;;;;;;9.15;5.25;;;;;;;;;;4896697;29;20041;-69
2023/12/18 11:02:43;;;;;;;11.30;5.47;;;;;;;;;;4898731;29;20072;-71
2023/12/18 11:05:09;;;;;;;3.83;3.63;;;;;;;;;;4896537;29;20644;-71
2023/12/18 11:07:35;;;;;;;7.63;5.25;;;;;;;;;;4879740;29;20154;-70
2023/12/18 11:10:02;;;;;;;4.25;3.85;;;;;;;;;;4896600;29;20044;-71
2023/12/18 11:12:30;;;;;;;4.47;4.07;;;;;;;;;;4898517;29;20045;-72
2023/12/18 11:15:15;;;;;;;5.88;3.72;;;;;;;;;;4880948;29;20036;-73
2023/12/18 11:18:01;;;;;;;5.32;4.85;;;;;;;;;;4893588;29;20044;-72
2023/12/18 11:20:34;;;;;;;8.88;4.95;;;;;;;;;;4879049;29;20037;-71
2023/12/18 11:23:00;;;;;;;3.00;2.80;;;;;;;;;;4896293;29;20052;-71
2023/12/18 11:25:26;;;;;;;5.57;5.07;;;;;;;;;;4896104;29;20567;-70
2023/12/18 11:27:52;;;;;;;5.47;3.63;;;;;;;;;;4895861;29;20036;-70
2023/12/18 11:30:22;;;;;;;8.80;4.22;;;;;;;;;;4895551;29;20092;-70
2023/12/18 11:32:47;;;;;;;4.05;3.63;;;;;;;;;;4895694;29;20047;-70
2023/12/18 11:35:14;;;;;;;4.18;3.78;;;;;;;;;;4895294;29;20116;-71
2023/12/18 11:37:46;;;;;;;4.88;4.35;;;;;;;;;;4895357;29;20826;-71
2023/12/18 11:40:35;;;;;;;4.47;4.10;;;;;;;;;;4912942;29;20036;-70
2023/12/18 11:43:01;;;;;;;4.70;4.15;;;;;;;;;;4890988;29;20411;-71
2023/12/18 11:45:27;;;;;;;8.05;4.55;;;;;;;;;;4882546;29;20119;-71
2023/12/18 11:47:53;;;;;;;4.00;3.60;;;;;;;;;;4891965;29;20035;-71
2023/12/18 11:50:20;;;;;;;3.85;3.50;;;;;;;;;;4877630;29;20088;-70
2023/12/18 11:52:48;;;;;;;3.83;3.13;;;;;;;;;;4878584;29;20040;-69
2023/12/18 11:55:33;;;;;;;5.82;4.40;;;;;;;;;;4879462;29;20068;-70
2023/12/18 11:58:00;;;;;;;9.32;4.70;;;;;;;;;;4910277;29;20108;-70
2023/12/18 12:00:26;;;;;;;5.93;4.88;;;;;;;;;;4890411;29;20028;-70
2023/12/18 12:02:51;;;;;;;2.88;2.67;;;;;;;;;;4904886;29;20107;-71
2023/12/18 12:05:17;;;;;;;3.33;3.03;;;;;;;;;;4902735;29;20504;-71
2023/12/18 12:07:48;;;;;;;3.75;3.38;;;;;;;;;;4899877;29;20743;-70
2023/12/18 12:10:14;;;;;;;;;;;;;;;;;;4895532;29;20471;-71
2023/12/18 12:12:40;;;;;;;5.72;4.43;;;;;;;;;;4887455;29;19926;-70
2023/12/18 12:15:06;;;;;;;7.63;4.57;;;;;;;;;;4880180;29;20508;-72
2023/12/18 12:17:32;;;;;;;10.75;4.47;;;;;;;;;;4908705;29;20064;-70
2023/12/18 12:20:00;;;;;;;4.13;3.83;;;;;;;;;;4905319;29;20032;-70
2023/12/18 12:22:28;;;;;;;7.03;4.55;;;;;;;;;;4893739;29;20046;-71
2023/12/18 12:24:54;;;;;;;6.90;4.47;;;;;;;;;;4913359;29;20101;-72
2023/12/18 12:27:19;;;;;;;3.75;3.45;;;;;;;;;;4889093;29;20532;-70
2023/12/18 12:29:45;;;;;;;2.72;2.63;;;;;;;;;;4907216;29;20020;-70
2023/12/18 12:32:11;;;;;;;2.72;2.60;;;;;;;;;;4904793;29;20060;-70
2023/12/18 12:34:37;;;;;;;2.63;2.42;;;;;;;;;;4893615;29;20581;-72
2023/12/18 12:37:03;;;;;;;2.95;2.75;;;;;;;;;;4915033;29;20406;-71
2023/12/18 12:39:29;;;;;;;3.63;3.28;;;;;;;;;;4879462;29;20537;-71
2023/12/18 12:41:54;;;;;;;3.80;3.50;;;;;;;;;;4877460;29;20043;-71
2023/12/18 12:44:20;;;;;;;3.65;3.28;;;;;;;;;;4878805;29;20040;-70
2023/12/18 12:46:46;;;;;;;4.38;3.97;;;;;;;;;;4910273;29;20044;-70
2023/12/18 12:49:12;;;;;;;3.13;2.92;;;;;;;;;;4877632;29;20097;-72
2023/12/18 12:51:38;;;;;;;3.95;3.75;;;;;;;;;;4893903;29;20059;-71
2023/12/18 12:54:04;;;;;;;4.53;4.15;;;;;;;;;;4878716;29;20032;-73
2023/12/18 12:56:30;;;;;;;3.92;3.30;;;;;;;;;;4882539;29;20452;-70
2023/12/18 12:58:56;;;;;;;5.03;3.65;;;;;;;;;;4893371;29;20048;-70
2023/12/18 13:01:22;;;;;;;3.45;3.25;;;;;;;;;;4899066;29;20052;-70
2023/12/18 13:03:50;;;;;;;3.88;3.20;;;;;;;;;;4896322;29;20024;-70
2023/12/18 13:06:17;;;;;;;2.88;2.78;;;;;;;;;;4883448;29;20083;-70
2023/12/18 13:08:43;;;;;;;2.63;2.53;;;;;;;;;;4897212;29;20042;-70
2023/12/18 13:11:09;;;;;;;2.60;2.33;;;;;;;;;;4913390;29;20043;-70
2023/12/18 13:13:35;;;;;;;4.28;3.33;;;;;;;;;;4880294;29;20546;-70
2023/12/18 13:16:00;;;;;;;2.88;2.67;;;;;;;;;;4912645;29;20044;-71
2023/12/18 13:18:26;;;;;;;4.03;3.00;;;;;;;;;;4895124;29;20412;-71
2023/12/18 13:20:52;;;;;;;3.35;3.13;;;;;;;;;;4912173;29;20101;-71
2023/12/18 13:23:18;;;;;;;2.40;2.17;;;;;;;;;;4912009;29;20068;-70
2023/12/18 13:25:44;;;;;;;2.65;2.55;;;;;;;;;;4864149;29;20036;-70
2023/12/18 13:28:09;;;;;;;3.08;2.28;;;;;;;;;;4912124;29;20039;-71
2023/12/18 13:30:35;;;;;;;4.30;3.58;;;;;;;;;;4911926;29;20067;-70
2023/12/18 13:33:02;;;;;;;6.18;3.40;;;;;;;;;;4877642;29;20038;-70
2023/12/18 13:35:27;;;;;;;2.90;2.80;;;;;;;;;;4879697;29;20068;-70
2023/12/18 13:37:53;;;;;;;3.92;3.63;;;;;;;;;;4893386;29;20036;-70
2023/12/18 13:40:19;;;;;;;3.63;3.33;;;;;;;;;;4886605;29;20040;-71
2023/12/18 13:42:46;;;;;;;2.95;2.78;;;;;;;;;;4895242;29;20051;-70
2023/12/18 13:45:12;;;;;;;3.08;2.88;;;;;;;;;;4913338;29;20047;-70
2023/12/18 13:47:37;;;;;;;2.63;2.15;;;;;;;;;;4913536;29;20036;-70
2023/12/18 13:50:03;;;;;;;2.47;2.38;;;;;;;;;;4908690;29;20400;-71
2023/12/18 13:52:31;;;;;;;2.15;2.05;;;;;;;;;;4894782;29;20127;-71
2023/12/18 13:54:56;;;;;;;2.13;2.03;;;;;;;;;;4913192;29;20805;-70
2023/12/18 13:57:22;;;;;;;1.73;1.73;;;;;;;;;;4894904;29;20044;-71
2023/12/18 13:59:48;;;;;;;2.58;2.40;;;;;;;;;;4880094;29;20043;-70
2023/12/18 14:02:14;;;;;;;4.18;3.85;;;;;;;;;;4912531;29;20168;-71
2023/12/18 14:04:39;;;;;;;3.53;3.22;;;;;;;;;;4868483;29;20381;-70
2023/12/18 14:07:05;;;;;;;2.88;2.67;;;;;;;;;;4894223;29;20115;-70
2023/12/18 14:09:31;;;;;;;3.28;2.13;;;;;;;;;;4845918;29;20474;-70
2023/12/18 14:11:57;;;;;;;1.52;1.50;;;;;;;;;;4892823;29;20095;-71
2023/12/18 14:14:23;;;;;;;2.35;2.25;;;;;;;;;;4893025;29;20037;-70
2023/12/18 14:16:49;;;;;;;2.33;2.22;;;;;;;;;;4860764;29;20040;-71
2023/12/18 14:19:15;;;;;;;2.13;2.03;;;;;;;;;;4892848;29;20028;-71
2023/12/18 14:21:41;;;;;;;2.20;2.10;;;;;;;;;;4878626;29;20048;-70
2023/12/18 14:24:07;;;;;;;2.38;2.28;;;;;;;;;;4886736;29;20028;-70
2023/12/18 14:26:33;;;;;;;1.83;1.73;;;;;;;;;;4915386;29;20055;-71
2023/12/18 14:28:59;;;;;;;1.42;1.42;;;;;;;;;;4849198;29;20036;-71
2023/12/18 14:31:25;;;;;;;1.98;1.88;;;;;;;;;;4879664;29;20427;-70
2023/12/18 14:33:51;;;;;;;1.73;1.67;;;;;;;;;;4889629;29;20411;-72
2023/12/18 14:36:17;;;;;;;1.27;1.27;;;;;;;;;;4905019;29;20485;-70
2023/12/18 14:38:43;;;;;;;2.10;2.00;;;;;;;;;;4902885;29;21330;-70